sensor_id;sensor_type;location;lat;lon;timestamp;P1;durP1;ratioP1;P2;durP2;ratioP2
18653;SDS011;9456;47.824;16.228;2023-10-13T00:00:50;4.30;;;3.43;;
18653;SDS011;9456;47.824;16.228;2023-10-13T00:03:27;3.30;;;3.00;;
18653;SDS011;9456;47.824;16.228;2023-10-13T00:05:56;4.77;;;3.37;;
18653;SDS011;9456;47.824;16.228;2023-10-13T00:08:23;5.27;;;3.60;;
18653;SDS011;9456;47.824;16.228;2023-10-13T00:10:51;4.63;;;3.63;;
18653;SDS011;9456;47.824;16.228;2023-10-13T00:13:19;6.70;;;3.57;;
18653;SDS011;9456;47.824;16.228;2023-10-13T00:15:53;5.73;;;3.30;;
18653;SDS011;9456;47.824;16.228;2023-10-13T00:18:25;5.67;;;3.40;;
18653;SDS011;9456;47.824;16.228;2023-10-13T00:20:54;4.63;;;3.93;;
18653;SDS011;9456;47.824;16.228;2023-10-13T00:23:24;4.07;;;3.50;;
18653;SDS011;9456;47.824;16.228;2023-10-13T00:25:53;3.80;;;3.33;;
18653;SDS011;9456;47.824;16.228;2023-10-13T00:28:26;6.13;;;3.13;;
18653;SDS011;9456;47.824;16.228;2023-10-13T00:30:55;6.37;;;3.87;;
18653;SDS011;9456;47.824;16.228;2023-10-13T00:33:28;5.80;;;4.20;;
18653;SDS011;9456;47.824;16.228;2023-10-13T00:35:56;4.10;;;3.50;;
18653;SDS011;9456;47.824;16.228;2023-10-13T00:38:24;6.77;;;3.20;;
18653;SDS011;9456;47.824;16.228;2023-10-13T00:40:52;6.10;;;3.90;;
18653;SDS011;9456;47.824;16.228;2023-10-13T00:43:21;5.00;;;3.97;;
18653;SDS011;9456;47.824;16.228;2023-10-13T00:46:02;7.70;;;4.07;;
18653;SDS011;9456;47.824;16.228;2023-10-13T00:48:37;4.83;;;3.70;;
18653;SDS011;9456;47.824;16.228;2023-10-13T00:51:10;7.30;;;3.90;;
18653;SDS011;9456;47.824;16.228;2023-10-13T00:53:40;3.67;;;3.37;;
18653;SDS011;9456;47.824;16.228;2023-10-13T00:56:09;4.80;;;3.67;;
18653;SDS011;9456;47.824;16.228;2023-10-13T00:58:37;5.50;;;4.13;;
18653;SDS011;9456;47.824;16.228;2023-10-13T01:01:05;5.10;;;3.80;;
18653;SDS011;9456;47.824;16.228;2023-10-13T01:03:46;8.73;;;4.17;;
18653;SDS011;9456;47.824;16.228;2023-10-13T01:06:20;7.33;;;3.77;;
18653;SDS011;9456;47.824;16.228;2023-10-13T01:08:48;3.70;;;3.13;;
18653;SDS011;9456;47.824;16.228;2023-10-13T01:11:19;4.90;;;3.80;;
18653;SDS011;9456;47.824;16.228;2023-10-13T01:13:47;5.60;;;4.03;;
18653;SDS011;9456;47.824;16.228;2023-10-13T01:16:15;5.43;;;3.77;;
18653;SDS011;9456;47.824;16.228;2023-10-13T01:18:43;6.17;;;3.67;;
18653;SDS011;9456;47.824;16.228;2023-10-13T01:21:15;6.77;;;3.83;;
18653;SDS011;9456;47.824;16.228;2023-10-13T01:23:44;6.30;;;4.47;;
18653;SDS011;9456;47.824;16.228;2023-10-13T01:26:12;4.70;;;3.83;;
18653;SDS011;9456;47.824;16.228;2023-10-13T01:28:40;4.17;;;3.77;;
18653;SDS011;9456;47.824;16.228;2023-10-13T01:31:12;7.37;;;3.80;;
18653;SDS011;9456;47.824;16.228;2023-10-13T01:33:40;7.73;;;3.67;;
18653;SDS011;9456;47.824;16.228;2023-10-13T01:36:08;4.40;;;3.70;;
18653;SDS011;9456;47.824;16.228;2023-10-13T01:38:36;7.27;;;4.03;;
18653;SDS011;9456;47.824;16.228;2023-10-13T01:41:08;7.97;;;4.17;;
18653;SDS011;9456;47.824;16.228;2023-10-13T01:43:36;5.20;;;3.83;;
18653;SDS011;9456;47.824;16.228;2023-10-13T01:46:04;6.33;;;3.83;;
18653;SDS011;9456;47.824;16.228;2023-10-13T01:48:32;6.17;;;3.97;;
18653;SDS011;9456;47.824;16.228;2023-10-13T01:51:00;4.77;;;3.70;;
18653;SDS011;9456;47.824;16.228;2023-10-13T01:53:28;5.43;;;3.70;;
18653;SDS011;9456;47.824;16.228;2023-10-13T01:55:57;4.73;;;3.60;;
18653;SDS011;9456;47.824;16.228;2023-10-13T01:58:26;5.00;;;3.83;;
18653;SDS011;9456;47.824;16.228;2023-10-13T02:00:54;4.17;;;3.33;;
18653;SDS011;9456;47.824;16.228;2023-10-13T02:03:22;6.60;;;3.97;;
18653;SDS011;9456;47.824;16.228;2023-10-13T02:05:50;4.00;;;3.50;;
18653;SDS011;9456;47.824;16.228;2023-10-13T02:08:18;4.23;;;3.67;;
18653;SDS011;9456;47.824;16.228;2023-10-13T02:10:46;4.07;;;3.67;;
18653;SDS011;9456;47.824;16.228;2023-10-13T02:13:14;4.83;;;3.80;;
18653;SDS011;9456;47.824;16.228;2023-10-13T02:15:45;5.03;;;3.77;;
18653;SDS011;9456;47.824;16.228;2023-10-13T02:18:14;4.73;;;3.80;;
18653;SDS011;9456;47.824;16.228;2023-10-13T02:20:43;6.47;;;3.93;;
18653;SDS011;9456;47.824;16.228;2023-10-13T02:23:11;4.83;;;3.93;;
18653;SDS011;9456;47.824;16.228;2023-10-13T02:25:39;6.00;;;4.23;;
18653;SDS011;9456;47.824;16.228;2023-10-13T02:28:13;6.20;;;3.47;;
18653;SDS011;9456;47.824;16.228;2023-10-13T02:30:42;7.17;;;3.63;;
18653;SDS011;9456;47.824;16.228;2023-10-13T02:33:12;4.23;;;3.87;;
18653;SDS011;9456;47.824;16.228;2023-10-13T02:35:40;5.87;;;4.40;;
18653;SDS011;9456;47.824;16.228;2023-10-13T02:38:11;9.33;;;4.33;;
18653;SDS011;9456;47.824;16.228;2023-10-13T02:40:39;6.10;;;4.07;;
18653;SDS011;9456;47.824;16.228;2023-10-13T02:43:07;5.50;;;4.00;;
18653;SDS011;9456;47.824;16.228;2023-10-13T02:45:40;7.13;;;3.87;;
18653;SDS011;9456;47.824;16.228;2023-10-13T02:48:08;7.37;;;4.00;;
18653;SDS011;9456;47.824;16.228;2023-10-13T02:50:39;7.37;;;4.13;;
18653;SDS011;9456;47.824;16.228;2023-10-13T02:53:07;6.27;;;4.53;;
18653;SDS011;9456;47.824;16.228;2023-10-13T02:55:35;5.67;;;4.20;;
18653;SDS011;9456;47.824;16.228;2023-10-13T02:58:04;8.20;;;3.67;;
18653;SDS011;9456;47.824;16.228;2023-10-13T03:00:32;6.60;;;4.50;;
18653;SDS011;9456;47.824;16.228;2023-10-13T03:03:01;5.80;;;4.10;;
18653;SDS011;9456;47.824;16.228;2023-10-13T03:05:33;6.13;;;4.60;;
18653;SDS011;9456;47.824;16.228;2023-10-13T03:07:57;7.53;;;4.70;;
18653;SDS011;9456;47.824;16.228;2023-10-13T03:10:26;6.00;;;4.20;;
18653;SDS011;9456;47.824;16.228;2023-10-13T03:12:54;9.53;;;4.67;;
18653;SDS011;9456;47.824;16.228;2023-10-13T03:15:22;5.90;;;4.20;;
18653;SDS011;9456;47.824;16.228;2023-10-13T03:17:50;5.70;;;4.10;;
18653;SDS011;9456;47.824;16.228;2023-10-13T03:20:18;7.03;;;4.37;;
18653;SDS011;9456;47.824;16.228;2023-10-13T03:22:46;5.40;;;4.30;;
18653;SDS011;9456;47.824;16.228;2023-10-13T03:25:14;6.50;;;4.10;;
18653;SDS011;9456;47.824;16.228;2023-10-13T03:27:45;7.70;;;4.47;;
18653;SDS011;9456;47.824;16.228;2023-10-13T03:30:16;4.50;;;4.03;;
18653;SDS011;9456;47.824;16.228;2023-10-13T03:32:44;6.23;;;3.93;;
18653;SDS011;9456;47.824;16.228;2023-10-13T03:35:12;6.80;;;3.90;;
18653;SDS011;9456;47.824;16.228;2023-10-13T03:37:40;6.47;;;3.87;;
18653;SDS011;9456;47.824;16.228;2023-10-13T03:40:09;6.03;;;4.20;;
18653;SDS011;9456;47.824;16.228;2023-10-13T03:42:43;4.63;;;3.40;;
18653;SDS011;9456;47.824;16.228;2023-10-13T03:45:11;6.50;;;3.87;;
18653;SDS011;9456;47.824;16.228;2023-10-13T03:47:39;6.27;;;4.00;;
18653;SDS011;9456;47.824;16.228;2023-10-13T03:50:08;4.80;;;3.67;;
18653;SDS011;9456;47.824;16.228;2023-10-13T03:52:42;5.43;;;4.20;;
18653;SDS011;9456;47.824;16.228;2023-10-13T03:55:11;4.90;;;4.07;;
18653;SDS011;9456;47.824;16.228;2023-10-13T03:57:40;5.13;;;3.70;;
18653;SDS011;9456;47.824;16.228;2023-10-13T04:00:09;7.47;;;4.20;;
18653;SDS011;9456;47.824;16.228;2023-10-13T04:02:37;10.23;;;4.50;;
18653;SDS011;9456;47.824;16.228;2023-10-13T04:05:06;4.40;;;3.73;;
18653;SDS011;9456;47.824;16.228;2023-10-13T04:07:35;5.13;;;3.80;;
18653;SDS011;9456;47.824;16.228;2023-10-13T04:10:09;4.57;;;4.17;;
18653;SDS011;9456;47.824;16.228;2023-10-13T04:13:03;4.57;;;3.83;;
18653;SDS011;9456;47.824;16.228;2023-10-13T04:15:59;6.27;;;4.07;;
18653;SDS011;9456;47.824;16.228;2023-10-13T04:18:30;8.27;;;3.90;;
18653;SDS011;9456;47.824;16.228;2023-10-13T04:21:01;4.63;;;4.13;;
18653;SDS011;9456;47.824;16.228;2023-10-13T04:23:42;3.83;;;3.43;;
18653;SDS011;9456;47.824;16.228;2023-10-13T04:26:29;5.03;;;3.87;;
18653;SDS011;9456;47.824;16.228;2023-10-13T04:28:58;5.43;;;3.90;;
18653;SDS011;9456;47.824;16.228;2023-10-13T04:31:26;4.13;;;3.57;;
18653;SDS011;9456;47.824;16.228;2023-10-13T04:34:11;5.03;;;3.67;;
18653;SDS011;9456;47.824;16.228;2023-10-13T04:36:47;6.70;;;4.23;;
18653;SDS011;9456;47.824;16.228;2023-10-13T04:39:15;12.57;;;4.83;;
18653;SDS011;9456;47.824;16.228;2023-10-13T04:41:45;6.73;;;4.20;;
18653;SDS011;9456;47.824;16.228;2023-10-13T04:44:25;4.73;;;4.10;;
18653;SDS011;9456;47.824;16.228;2023-10-13T04:47:15;6.40;;;4.17;;
18653;SDS011;9456;47.824;16.228;2023-10-13T04:49:46;7.40;;;4.20;;
18653;SDS011;9456;47.824;16.228;2023-10-13T04:52:19;8.17;;;4.30;;
18653;SDS011;9456;47.824;16.228;2023-10-13T04:55:07;8.77;;;4.03;;
18653;SDS011;9456;47.824;16.228;2023-10-13T04:57:44;6.50;;;3.93;;
18653;SDS011;9456;47.824;16.228;2023-10-13T05:00:15;6.93;;;3.83;;
18653;SDS011;9456;47.824;16.228;2023-10-13T05:03:01;12.87;;;5.37;;
18653;SDS011;9456;47.824;16.228;2023-10-13T05:05:47;8.60;;;4.60;;
18653;SDS011;9456;47.824;16.228;2023-10-13T05:08:34;5.90;;;4.30;;
18653;SDS011;9456;47.824;16.228;2023-10-13T05:11:20;6.57;;;4.27;;
18653;SDS011;9456;47.824;16.228;2023-10-13T05:14:06;6.10;;;4.83;;
18653;SDS011;9456;47.824;16.228;2023-10-13T05:16:52;7.43;;;4.43;;
18653;SDS011;9456;47.824;16.228;2023-10-13T05:19:38;6.03;;;4.00;;
18653;SDS011;9456;47.824;16.228;2023-10-13T05:22:24;8.27;;;4.80;;
18653;SDS011;9456;47.824;16.228;2023-10-13T05:25:10;5.60;;;4.63;;
18653;SDS011;9456;47.824;16.228;2023-10-13T05:27:56;4.70;;;4.20;;
18653;SDS011;9456;47.824;16.228;2023-10-13T05:30:42;9.60;;;4.63;;
18653;SDS011;9456;47.824;16.228;2023-10-13T05:33:28;9.47;;;4.57;;
18653;SDS011;9456;47.824;16.228;2023-10-13T05:36:14;9.63;;;4.60;;
18653;SDS011;9456;47.824;16.228;2023-10-13T05:39:00;6.87;;;4.43;;
18653;SDS011;9456;47.824;16.228;2023-10-13T05:41:46;8.33;;;4.80;;
18653;SDS011;9456;47.824;16.228;2023-10-13T05:44:32;9.97;;;4.33;;
18653;SDS011;9456;47.824;16.228;2023-10-13T05:47:15;12.03;;;4.30;;
18653;SDS011;9456;47.824;16.228;2023-10-13T05:50:01;13.03;;;4.20;;
18653;SDS011;9456;47.824;16.228;2023-10-13T05:52:32;11.33;;;4.80;;
18653;SDS011;9456;47.824;16.228;2023-10-13T05:55:19;12.30;;;4.80;;
18653;SDS011;9456;47.824;16.228;2023-10-13T05:58:06;7.53;;;4.40;;
18653;SDS011;9456;47.824;16.228;2023-10-13T06:00:52;9.17;;;4.23;;
18653;SDS011;9456;47.824;16.228;2023-10-13T06:09:27;9.67;;;4.67;;
18653;SDS011;9456;47.824;16.228;2023-10-13T06:12:14;8.07;;;4.43;;
18653;SDS011;9456;47.824;16.228;2023-10-13T06:15:00;10.47;;;4.60;;
18653;SDS011;9456;47.824;16.228;2023-10-13T06:17:46;7.37;;;4.03;;
18653;SDS011;9456;47.824;16.228;2023-10-13T06:20:31;8.73;;;4.10;;
18653;SDS011;9456;47.824;16.228;2023-10-13T06:23:17;8.03;;;4.07;;
18653;SDS011;9456;47.824;16.228;2023-10-13T06:26:04;10.87;;;4.40;;
18653;SDS011;9456;47.824;16.228;2023-10-13T06:28:49;5.20;;;3.97;;
18653;SDS011;9456;47.824;16.228;2023-10-13T06:31:17;8.23;;;4.00;;
18653;SDS011;9456;47.824;16.228;2023-10-13T06:33:51;10.47;;;4.27;;
18653;SDS011;9456;47.824;16.228;2023-10-13T06:36:19;8.13;;;4.03;;
18653;SDS011;9456;47.824;16.228;2023-10-13T06:38:48;9.20;;;4.70;;
18653;SDS011;9456;47.824;16.228;2023-10-13T06:41:20;12.83;;;4.87;;
18653;SDS011;9456;47.824;16.228;2023-10-13T06:43:48;10.23;;;4.30;;
18653;SDS011;9456;47.824;16.228;2023-10-13T06:46:16;10.20;;;4.70;;
18653;SDS011;9456;47.824;16.228;2023-10-13T06:48:44;11.57;;;4.77;;
18653;SDS011;9456;47.824;16.228;2023-10-13T06:51:12;6.17;;;3.73;;
18653;SDS011;9456;47.824;16.228;2023-10-13T06:53:45;8.00;;;4.07;;
18653;SDS011;9456;47.824;16.228;2023-10-13T06:56:14;10.77;;;4.57;;
18653;SDS011;9456;47.824;16.228;2023-10-13T06:58:44;10.37;;;4.40;;
18653;SDS011;9456;47.824;16.228;2023-10-13T07:01:13;9.33;;;4.33;;
18653;SDS011;9456;47.824;16.228;2023-10-13T07:03:44;6.30;;;3.73;;
18653;SDS011;9456;47.824;16.228;2023-10-13T07:06:13;7.27;;;3.80;;
18653;SDS011;9456;47.824;16.228;2023-10-13T07:08:41;9.30;;;4.03;;
18653;SDS011;9456;47.824;16.228;2023-10-13T07:11:09;8.57;;;4.30;;
18653;SDS011;9456;47.824;16.228;2023-10-13T07:13:37;8.87;;;4.13;;
18653;SDS011;9456;47.824;16.228;2023-10-13T07:16:06;10.03;;;4.77;;
18653;SDS011;9456;47.824;16.228;2023-10-13T07:18:40;8.40;;;4.17;;
18653;SDS011;9456;47.824;16.228;2023-10-13T07:21:10;14.60;;;4.73;;
18653;SDS011;9456;47.824;16.228;2023-10-13T07:23:38;10.43;;;4.33;;
18653;SDS011;9456;47.824;16.228;2023-10-13T07:26:06;19.63;;;5.10;;
18653;SDS011;9456;47.824;16.228;2023-10-13T07:28:34;12.83;;;4.83;;
18653;SDS011;9456;47.824;16.228;2023-10-13T07:31:03;13.27;;;4.50;;
18653;SDS011;9456;47.824;16.228;2023-10-13T07:33:39;15.30;;;4.77;;
18653;SDS011;9456;47.824;16.228;2023-10-13T07:36:09;12.87;;;4.60;;
18653;SDS011;9456;47.824;16.228;2023-10-13T07:38:43;10.67;;;4.23;;
18653;SDS011;9456;47.824;16.228;2023-10-13T07:41:11;12.33;;;4.33;;
18653;SDS011;9456;47.824;16.228;2023-10-13T07:43:39;8.23;;;3.90;;
18653;SDS011;9456;47.824;16.228;2023-10-13T07:46:07;7.50;;;3.73;;
18653;SDS011;9456;47.824;16.228;2023-10-13T07:48:35;8.27;;;3.80;;
18653;SDS011;9456;47.824;16.228;2023-10-13T07:51:04;11.67;;;4.67;;
18653;SDS011;9456;47.824;16.228;2023-10-13T07:53:31;17.63;;;4.27;;
18653;SDS011;9456;47.824;16.228;2023-10-13T07:56:02;17.47;;;4.73;;
18653;SDS011;9456;47.824;16.228;2023-10-13T07:58:30;19.43;;;4.13;;
18653;SDS011;9456;47.824;16.228;2023-10-13T08:00:59;17.53;;;4.50;;
18653;SDS011;9456;47.824;16.228;2023-10-13T08:03:34;17.70;;;4.40;;
18653;SDS011;9456;47.824;16.228;2023-10-13T08:06:11;15.30;;;5.00;;
18653;SDS011;9456;47.824;16.228;2023-10-13T08:08:48;17.03;;;4.60;;
18653;SDS011;9456;47.824;16.228;2023-10-13T08:11:21;12.10;;;4.27;;
18653;SDS011;9456;47.824;16.228;2023-10-13T08:21:20;18.30;;;4.40;;
18653;SDS011;9456;47.824;16.228;2023-10-13T08:23:50;12.30;;;3.93;;
18653;SDS011;9456;47.824;16.228;2023-10-13T08:26:28;13.20;;;4.03;;
18653;SDS011;9456;47.824;16.228;2023-10-13T08:29:06;13.70;;;4.20;;
18653;SDS011;9456;47.824;16.228;2023-10-13T08:34:42;14.33;;;3.90;;
18653;SDS011;9456;47.824;16.228;2023-10-13T08:37:28;9.60;;;3.63;;
18653;SDS011;9456;47.824;16.228;2023-10-13T08:39:58;10.50;;;3.50;;
18653;SDS011;9456;47.824;16.228;2023-10-13T08:42:26;10.10;;;3.70;;
18653;SDS011;9456;47.824;16.228;2023-10-13T08:44:54;7.87;;;4.00;;
18653;SDS011;9456;47.824;16.228;2023-10-13T08:47:22;10.33;;;3.27;;
18653;SDS011;9456;47.824;16.228;2023-10-13T08:49:50;10.97;;;3.40;;
18653;SDS011;9456;47.824;16.228;2023-10-13T08:52:19;6.67;;;2.63;;
18653;SDS011;9456;47.824;16.228;2023-10-13T08:55:05;8.67;;;2.77;;
18653;SDS011;9456;47.824;16.228;2023-10-13T08:58:07;7.43;;;2.77;;
18653;SDS011;9456;47.824;16.228;2023-10-13T09:00:41;7.47;;;2.77;;
18653;SDS011;9456;47.824;16.228;2023-10-13T09:03:24;14.43;;;2.97;;
18653;SDS011;9456;47.824;16.228;2023-10-13T09:06:06;10.67;;;2.90;;
18653;SDS011;9456;47.824;16.228;2023-10-13T09:08:34;10.27;;;3.30;;
18653;SDS011;9456;47.824;16.228;2023-10-13T09:11:11;8.43;;;3.03;;
18653;SDS011;9456;47.824;16.228;2023-10-13T09:13:40;9.10;;;3.37;;
18653;SDS011;9456;47.824;16.228;2023-10-13T09:16:14;6.17;;;3.37;;
18653;SDS011;9456;47.824;16.228;2023-10-13T09:18:44;4.20;;;3.20;;
18653;SDS011;9456;47.824;16.228;2023-10-13T09:21:23;8.23;;;3.20;;
18653;SDS011;9456;47.824;16.228;2023-10-13T09:23:57;7.97;;;3.30;;
18653;SDS011;9456;47.824;16.228;2023-10-13T09:26:43;7.43;;;3.10;;
18653;SDS011;9456;47.824;16.228;2023-10-13T09:29:15;6.10;;;2.97;;
18653;SDS011;9456;47.824;16.228;2023-10-13T09:31:43;8.80;;;3.50;;
18653;SDS011;9456;47.824;16.228;2023-10-13T09:34:19;5.77;;;3.47;;
18653;SDS011;9456;47.824;16.228;2023-10-13T09:36:48;13.40;;;3.50;;
18653;SDS011;9456;47.824;16.228;2023-10-13T09:39:16;9.10;;;3.20;;
18653;SDS011;9456;47.824;16.228;2023-10-13T09:41:44;7.63;;;3.13;;
18653;SDS011;9456;47.824;16.228;2023-10-13T09:44:12;12.47;;;3.10;;
18653;SDS011;9456;47.824;16.228;2023-10-13T09:46:40;9.30;;;3.33;;
18653;SDS011;9456;47.824;16.228;2023-10-13T09:49:11;5.30;;;3.40;;
18653;SDS011;9456;47.824;16.228;2023-10-13T09:51:38;7.63;;;3.17;;
18653;SDS011;9456;47.824;16.228;2023-10-13T09:54:08;7.77;;;3.20;;
18653;SDS011;9456;47.824;16.228;2023-10-13T09:56:37;6.03;;;3.37;;
18653;SDS011;9456;47.824;16.228;2023-10-13T09:59:04;7.97;;;3.90;;
18653;SDS011;9456;47.824;16.228;2023-10-13T10:01:32;6.60;;;2.93;;
18653;SDS011;9456;47.824;16.228;2023-10-13T10:04:09;5.60;;;3.03;;
18653;SDS011;9456;47.824;16.228;2023-10-13T10:06:38;9.10;;;3.07;;
18653;SDS011;9456;47.824;16.228;2023-10-13T10:09:10;6.23;;;3.03;;
18653;SDS011;9456;47.824;16.228;2023-10-13T10:12:01;7.80;;;3.40;;
18653;SDS011;9456;47.824;16.228;2023-10-13T10:14:42;8.03;;;3.20;;
18653;SDS011;9456;47.824;16.228;2023-10-13T10:17:05;7.53;;;3.07;;
18653;SDS011;9456;47.824;16.228;2023-10-13T10:19:46;6.33;;;3.00;;
18653;SDS011;9456;47.824;16.228;2023-10-13T10:22:24;5.13;;;3.07;;
18653;SDS011;9456;47.824;16.228;2023-10-13T10:24:44;7.53;;;3.23;;
18653;SDS011;9456;47.824;16.228;2023-10-13T10:27:12;5.83;;;3.13;;
18653;SDS011;9456;47.824;16.228;2023-10-13T10:29:40;5.10;;;3.07;;
18653;SDS011;9456;47.824;16.228;2023-10-13T10:32:13;6.83;;;3.40;;
18653;SDS011;9456;47.824;16.228;2023-10-13T10:34:41;8.27;;;3.67;;
18653;SDS011;9456;47.824;16.228;2023-10-13T10:37:09;8.47;;;4.03;;
18653;SDS011;9456;47.824;16.228;2023-10-13T10:39:37;8.93;;;3.43;;
18653;SDS011;9456;47.824;16.228;2023-10-13T10:42:13;7.03;;;3.53;;
18653;SDS011;9456;47.824;16.228;2023-10-13T10:44:43;8.17;;;3.27;;
18653;SDS011;9456;47.824;16.228;2023-10-13T10:47:12;9.47;;;4.10;;
18653;SDS011;9456;47.824;16.228;2023-10-13T10:49:41;7.80;;;3.37;;
18653;SDS011;9456;47.824;16.228;2023-10-13T10:52:10;7.23;;;3.10;;
18653;SDS011;9456;47.824;16.228;2023-10-13T10:54:38;6.57;;;3.50;;
18653;SDS011;9456;47.824;16.228;2023-10-13T10:57:06;6.43;;;3.20;;
18653;SDS011;9456;47.824;16.228;2023-10-13T10:59:40;7.77;;;3.13;;
18653;SDS011;9456;47.824;16.228;2023-10-13T11:04:45;10.83;;;2.90;;
18653;SDS011;9456;47.824;16.228;2023-10-13T11:07:22;5.23;;;3.13;;
18653;SDS011;9456;47.824;16.228;2023-10-13T11:09:50;5.87;;;2.80;;
18653;SDS011;9456;47.824;16.228;2023-10-13T11:12:20;5.23;;;2.87;;
18653;SDS011;9456;47.824;16.228;2023-10-13T11:15:00;5.37;;;2.80;;
18653;SDS011;9456;47.824;16.228;2023-10-13T11:17:28;4.10;;;2.73;;
18653;SDS011;9456;47.824;16.228;2023-10-13T11:20:08;6.47;;;2.70;;
18653;SDS011;9456;47.824;16.228;2023-10-13T11:22:39;8.63;;;3.03;;
18653;SDS011;9456;47.824;16.228;2023-10-13T11:25:10;6.83;;;3.23;;
18653;SDS011;9456;47.824;16.228;2023-10-13T11:27:38;4.00;;;2.97;;
18653;SDS011;9456;47.824;16.228;2023-10-13T11:30:20;6.00;;;2.43;;
18653;SDS011;9456;47.824;16.228;2023-10-13T11:32:57;8.30;;;3.30;;
18653;SDS011;9456;47.824;16.228;2023-10-13T11:35:25;7.10;;;2.60;;
18653;SDS011;9456;47.824;16.228;2023-10-13T11:37:53;5.03;;;2.90;;
18653;SDS011;9456;47.824;16.228;2023-10-13T11:40:23;5.93;;;2.80;;
18653;SDS011;9456;47.824;16.228;2023-10-13T11:43:08;7.83;;;2.90;;
18653;SDS011;9456;47.824;16.228;2023-10-13T11:45:37;6.13;;;3.17;;
18653;SDS011;9456;47.824;16.228;2023-10-13T11:48:06;4.80;;;2.53;;
18653;SDS011;9456;47.824;16.228;2023-10-13T11:50:34;7.47;;;2.70;;
18653;SDS011;9456;47.824;16.228;2023-10-13T11:53:03;7.97;;;2.80;;
18653;SDS011;9456;47.824;16.228;2023-10-13T11:55:33;5.87;;;2.57;;
18653;SDS011;9456;47.824;16.228;2023-10-13T11:58:01;4.90;;;3.07;;
18653;SDS011;9456;47.824;16.228;2023-10-13T12:00:29;3.97;;;2.33;;
18653;SDS011;9456;47.824;16.228;2023-10-13T12:03:07;7.80;;;2.60;;
18653;SDS011;9456;47.824;16.228;2023-10-13T12:05:53;6.73;;;2.67;;
18653;SDS011;9456;47.824;16.228;2023-10-13T12:08:27;4.60;;;2.63;;
18653;SDS011;9456;47.824;16.228;2023-10-13T12:10:55;8.13;;;3.20;;
18653;SDS011;9456;47.824;16.228;2023-10-13T12:13:27;4.83;;;2.57;;
18653;SDS011;9456;47.824;16.228;2023-10-13T12:15:55;5.27;;;3.00;;
18653;SDS011;9456;47.824;16.228;2023-10-13T12:18:23;6.17;;;2.67;;
18653;SDS011;9456;47.824;16.228;2023-10-13T12:20:51;4.27;;;2.73;;
18653;SDS011;9456;47.824;16.228;2023-10-13T12:23:19;5.80;;;3.07;;
18653;SDS011;9456;47.824;16.228;2023-10-13T12:25:47;11.37;;;3.30;;
18653;SDS011;9456;47.824;16.228;2023-10-13T12:28:28;6.07;;;2.73;;
18653;SDS011;9456;47.824;16.228;2023-10-13T12:30:56;4.57;;;2.53;;
18653;SDS011;9456;47.824;16.228;2023-10-13T12:33:25;6.00;;;2.77;;
18653;SDS011;9456;47.824;16.228;2023-10-13T12:36:00;7.10;;;2.90;;
18653;SDS011;9456;47.824;16.228;2023-10-13T12:38:43;6.70;;;3.00;;
18653;SDS011;9456;47.824;16.228;2023-10-13T12:41:29;8.70;;;2.80;;
18653;SDS011;9456;47.824;16.228;2023-10-13T12:44:15;7.13;;;3.00;;
18653;SDS011;9456;47.824;16.228;2023-10-13T12:47:01;4.90;;;2.70;;
18653;SDS011;9456;47.824;16.228;2023-10-13T12:49:47;6.90;;;3.50;;
18653;SDS011;9456;47.824;16.228;2023-10-13T12:52:27;6.17;;;2.73;;
18653;SDS011;9456;47.824;16.228;2023-10-13T12:54:56;7.77;;;2.83;;
18653;SDS011;9456;47.824;16.228;2023-10-13T12:57:33;4.33;;;2.40;;
18653;SDS011;9456;47.824;16.228;2023-10-13T13:00:02;5.70;;;2.70;;
18653;SDS011;9456;47.824;16.228;2023-10-13T13:02:31;3.30;;;2.60;;
18653;SDS011;9456;47.824;16.228;2023-10-13T13:05:00;6.57;;;2.90;;
18653;SDS011;9456;47.824;16.228;2023-10-13T13:07:29;7.23;;;2.40;;
18653;SDS011;9456;47.824;16.228;2023-10-13T13:09:57;5.57;;;2.83;;
18653;SDS011;9456;47.824;16.228;2023-10-13T13:12:26;8.20;;;3.00;;
18653;SDS011;9456;47.824;16.228;2023-10-13T13:14:54;3.97;;;2.67;;
18653;SDS011;9456;47.824;16.228;2023-10-13T13:17:22;6.83;;;2.60;;
18653;SDS011;9456;47.824;16.228;2023-10-13T13:19:51;5.87;;;2.63;;
18653;SDS011;9456;47.824;16.228;2023-10-13T13:22:19;8.17;;;2.90;;
18653;SDS011;9456;47.824;16.228;2023-10-13T13:24:47;9.63;;;3.17;;
18653;SDS011;9456;47.824;16.228;2023-10-13T13:27:15;7.00;;;2.73;;
18653;SDS011;9456;47.824;16.228;2023-10-13T13:29:43;5.90;;;3.00;;
18653;SDS011;9456;47.824;16.228;2023-10-13T13:32:11;5.13;;;3.13;;
18653;SDS011;9456;47.824;16.228;2023-10-13T13:34:53;8.93;;;3.17;;
18653;SDS011;9456;47.824;16.228;2023-10-13T13:37:22;6.93;;;2.70;;
18653;SDS011;9456;47.824;16.228;2023-10-13T13:39:50;8.10;;;3.10;;
18653;SDS011;9456;47.824;16.228;2023-10-13T13:42:18;5.77;;;2.83;;
18653;SDS011;9456;47.824;16.228;2023-10-13T13:44:46;5.77;;;3.13;;
18653;SDS011;9456;47.824;16.228;2023-10-13T13:47:14;9.27;;;3.07;;
18653;SDS011;9456;47.824;16.228;2023-10-13T13:49:42;5.57;;;2.73;;
18653;SDS011;9456;47.824;16.228;2023-10-13T13:52:13;7.90;;;3.10;;
18653;SDS011;9456;47.824;16.228;2023-10-13T13:54:42;8.23;;;3.20;;
18653;SDS011;9456;47.824;16.228;2023-10-13T13:57:10;10.07;;;3.20;;
18653;SDS011;9456;47.824;16.228;2023-10-13T13:59:38;7.60;;;2.80;;
18653;SDS011;9456;47.824;16.228;2023-10-13T14:02:06;10.03;;;3.30;;
18653;SDS011;9456;47.824;16.228;2023-10-13T14:04:35;13.20;;;3.17;;
18653;SDS011;9456;47.824;16.228;2023-10-13T14:07:03;5.73;;;3.03;;
18653;SDS011;9456;47.824;16.228;2023-10-13T14:09:31;9.60;;;3.10;;
18653;SDS011;9456;47.824;16.228;2023-10-13T14:12:00;5.03;;;3.27;;
18653;SDS011;9456;47.824;16.228;2023-10-13T14:14:46;5.10;;;2.00;;
18653;SDS011;9456;47.824;16.228;2023-10-13T14:17:15;5.60;;;2.80;;
18653;SDS011;9456;47.824;16.228;2023-10-13T14:19:43;8.17;;;2.93;;
18653;SDS011;9456;47.824;16.228;2023-10-13T14:22:11;5.30;;;2.60;;
18653;SDS011;9456;47.824;16.228;2023-10-13T14:27:22;4.90;;;2.47;;
18653;SDS011;9456;47.824;16.228;2023-10-13T14:29:50;4.53;;;2.40;;
18653;SDS011;9456;47.824;16.228;2023-10-13T14:32:20;6.40;;;2.70;;
18653;SDS011;9456;47.824;16.228;2023-10-13T14:34:48;9.73;;;2.70;;
18653;SDS011;9456;47.824;16.228;2023-10-13T14:37:16;4.80;;;2.60;;
18653;SDS011;9456;47.824;16.228;2023-10-13T14:39:45;6.93;;;2.70;;
18653;SDS011;9456;47.824;16.228;2023-10-13T14:42:13;9.57;;;2.70;;
18653;SDS011;9456;47.824;16.228;2023-10-13T14:44:41;7.27;;;2.63;;
18653;SDS011;9456;47.824;16.228;2023-10-13T14:47:09;5.03;;;2.70;;
18653;SDS011;9456;47.824;16.228;2023-10-13T14:49:38;5.33;;;2.77;;
18653;SDS011;9456;47.824;16.228;2023-10-13T14:52:06;7.97;;;2.67;;
18653;SDS011;9456;47.824;16.228;2023-10-13T14:54:35;5.87;;;2.80;;
18653;SDS011;9456;47.824;16.228;2023-10-13T14:57:03;3.87;;;2.43;;
18653;SDS011;9456;47.824;16.228;2023-10-13T14:59:31;3.47;;;2.20;;
18653;SDS011;9456;47.824;16.228;2023-10-13T15:02:01;4.33;;;2.33;;
18653;SDS011;9456;47.824;16.228;2023-10-13T15:04:29;3.27;;;2.10;;
18653;SDS011;9456;47.824;16.228;2023-10-13T15:06:58;7.80;;;3.07;;
18653;SDS011;9456;47.824;16.228;2023-10-13T15:09:26;5.70;;;2.60;;
18653;SDS011;9456;47.824;16.228;2023-10-13T15:11:54;6.40;;;2.60;;
18653;SDS011;9456;47.824;16.228;2023-10-13T15:14:22;4.47;;;2.97;;
18653;SDS011;9456;47.824;16.228;2023-10-13T15:16:50;7.17;;;2.80;;
18653;SDS011;9456;47.824;16.228;2023-10-13T15:19:19;5.67;;;2.70;;
18653;SDS011;9456;47.824;16.228;2023-10-13T15:21:47;7.40;;;2.90;;
18653;SDS011;9456;47.824;16.228;2023-10-13T15:24:16;6.80;;;2.83;;
18653;SDS011;9456;47.824;16.228;2023-10-13T15:26:44;4.53;;;2.93;;
18653;SDS011;9456;47.824;16.228;2023-10-13T15:29:12;4.70;;;2.17;;
18653;SDS011;9456;47.824;16.228;2023-10-13T15:31:40;5.50;;;2.70;;
18653;SDS011;9456;47.824;16.228;2023-10-13T15:34:11;6.00;;;2.80;;
18653;SDS011;9456;47.824;16.228;2023-10-13T15:36:38;7.17;;;3.20;;